Time;durP1;ratioP1;P1;durP2;ratioP2;P2;SDS_P1;SDS_P2;PMS_P1;PMS_P2;Temp;Humidity;BMP_temperature;BMP_pressure;BME280_temperature;BME280_humidity;BME280_pressure;Samples;Min_cycle;Max_cycle;Signal;HPM_P1;HPM_P2
2021/07/03 00:01:54;;;;;;;18.58;13.02;;;;;;;;;;4935378;28;20051;-81
2021/07/03 00:04:21;;;;;;;18.38;12.30;;;;;;;;;;4952834;28;20051;-81
2021/07/03 00:06:47;;;;;;;21.40;13.30;;;;;;;;;;4935424;29;20431;-82
2021/07/03 00:09:14;;;;;;;20.40;13.52;;;;;;;;;;4940806;28;20135;-82
2021/07/03 00:11:40;;;;;;;17.13;12.63;;;;;;;;;;4932028;29;20083;-82
2021/07/03 00:14:08;;;;;;;19.98;13.95;;;;;;;;;;4947918;28;20141;-82
2021/07/03 00:16:35;;;;;;;19.50;13.45;;;;;;;;;;4951375;28;20051;-83
2021/07/03 00:19:01;;;;;;;17.33;13.25;;;;;;;;;;4950609;28;20054;-81
2021/07/03 00:21:27;;;;;;;17.73;11.65;;;;;;;;;;4951830;28;20495;-82
2021/07/03 00:23:54;;;;;;;16.70;11.88;;;;;;;;;;4951761;28;20158;-81
2021/07/03 00:26:20;;;;;;;17.15;11.63;;;;;;;;;;4953034;28;20142;-82
2021/07/03 00:28:46;;;;;;;14.68;10.88;;;;;;;;;;4934722;29;20603;-81
2021/07/03 00:31:12;;;;;;;16.10;11.10;;;;;;;;;;4952640;28;20047;-83
2021/07/03 00:33:38;;;;;;;14.13;11.43;;;;;;;;;;4951596;28;20143;-83
2021/07/03 00:36:05;;;;;;;14.48;11.30;;;;;;;;;;4952745;28;20051;-81
2021/07/03 00:38:31;;;;;;;17.92;13.00;;;;;;;;;;4952024;28;20471;-81
2021/07/03 00:40:57;;;;;;;16.45;12.52;;;;;;;;;;4951408;28;20126;-81
2021/07/03 00:43:23;;;;;;;14.73;11.68;;;;;;;;;;4952410;28;20051;-82
2021/07/03 00:45:50;;;;;;;13.52;10.85;;;;;;;;;;4952264;28;20058;-81
2021/07/03 00:48:16;;;;;;;15.00;11.38;;;;;;;;;;4934036;29;20099;-82
2021/07/03 00:50:43;;;;;;;14.85;11.25;;;;;;;;;;4934458;28;20135;-82
2021/07/03 00:53:10;;;;;;;13.27;10.35;;;;;;;;;;4951939;28;20074;-80
2021/07/03 00:55:36;;;;;;;13.00;10.25;;;;;;;;;;4951584;28;20168;-84
2021/07/03 00:58:03;;;;;;;15.75;11.40;;;;;;;;;;4951472;28;20059;-81
2021/07/03 01:00:29;;;;;;;15.07;10.90;;;;;;;;;;4951153;28;20146;-81
2021/07/03 01:02:55;;;;;;;14.50;11.23;;;;;;;;;;4951288;28;20062;-81
2021/07/03 01:05:22;;;;;;;17.88;12.57;;;;;;;;;;4947948;28;20715;-79
2021/07/03 01:07:48;;;;;;;12.90;11.50;;;;;;;;;;4948907;28;20055;-79
2021/07/03 01:10:24;;;;;;;12.90;11.20;;;;;;;;;;4952154;28;20051;-79
2021/07/03 01:12:51;;;;;;;14.93;11.20;;;;;;;;;;4949827;28;20055;-79
2021/07/03 01:15:17;;;;;;;12.65;10.40;;;;;;;;;;4951925;28;20047;-81
2021/07/03 01:17:44;;;;;;;14.27;10.30;;;;;;;;;;4952958;28;20051;-79
2021/07/03 01:20:10;;;;;;;15.40;12.00;;;;;;;;;;4951825;28;20063;-78
2021/07/03 01:22:37;;;;;;;11.50;10.02;;;;;;;;;;4951482;28;20048;-85
2021/07/03 01:25:04;;;;;;;13.57;9.60;;;;;;;;;;4951718;28;20055;-79
2021/07/03 01:27:30;;;;;;;12.90;10.20;;;;;;;;;;4951376;28;20059;-79
2021/07/03 01:29:57;;;;;;;11.98;10.00;;;;;;;;;;4950859;28;20078;-78
2021/07/03 01:32:23;;;;;;;12.25;10.32;;;;;;;;;;4950313;28;20428;-79
2021/07/03 01:34:49;;;;;;;12.55;9.70;;;;;;;;;;4951452;28;20139;-79
2021/07/03 01:37:15;;;;;;;12.30;9.75;;;;;;;;;;4966012;28;20043;-79
2021/07/03 01:39:42;;;;;;;11.15;9.38;;;;;;;;;;4950678;28;20086;-79
2021/07/03 01:42:08;;;;;;;12.48;9.52;;;;;;;;;;4951469;28;20518;-79
2021/07/03 01:44:35;;;;;;;14.35;9.68;;;;;;;;;;4966072;28;20051;-79
2021/07/03 01:47:02;;;;;;;15.55;9.98;;;;;;;;;;4949855;28;20085;-78
2021/07/03 01:49:29;;;;;;;12.30;10.70;;;;;;;;;;4951353;28;20058;-79
2021/07/03 01:51:56;;;;;;;15.40;11.57;;;;;;;;;;4950689;28;20066;-78
2021/07/03 01:54:23;;;;;;;12.95;11.27;;;;;;;;;;4951348;28;20080;-78
2021/07/03 01:56:59;;;;;;;12.27;9.90;;;;;;;;;;4948952;28;20062;-79
2021/07/03 01:59:26;;;;;;;14.48;10.60;;;;;;;;;;4950182;28;20054;-79
2021/07/03 02:01:53;;;;;;;12.00;10.10;;;;;;;;;;4950534;28;20523;-79
2021/07/03 02:04:20;;;;;;;13.90;10.60;;;;;;;;;;4932431;29;20059;-78
2021/07/03 02:06:47;;;;;;;15.20;12.00;;;;;;;;;;4943634;28;20138;-79
2021/07/03 02:09:14;;;;;;;18.73;11.98;;;;;;;;;;4933978;28;20408;-79
2021/07/03 02:11:41;;;;;;;13.05;11.75;;;;;;;;;;4950520;28;20384;-80
2021/07/03 02:14:07;;;;;;;12.45;10.57;;;;;;;;;;4949803;28;20086;-78
2021/07/03 02:16:34;;;;;;;14.90;11.05;;;;;;;;;;4949612;28;20073;-78
2021/07/03 02:19:01;;;;;;;15.07;11.35;;;;;;;;;;4932763;28;20143;-79
2021/07/03 02:21:29;;;;;;;15.18;12.80;;;;;;;;;;4950642;28;20518;-78
2021/07/03 02:23:55;;;;;;;16.45;13.27;;;;;;;;;;4949664;28;20047;-79
2021/07/03 02:26:22;;;;;;;16.55;12.32;;;;;;;;;;4933212;28;20090;-78
2021/07/03 02:28:49;;;;;;;14.27;12.63;;;;;;;;;;4949111;28;20058;-79
2021/07/03 02:31:16;;;;;;;12.13;10.55;;;;;;;;;;4950767;28;20059;-79
2021/07/03 02:33:42;;;;;;;15.18;11.07;;;;;;;;;;4948833;28;20102;-82
2021/07/03 02:36:09;;;;;;;13.60;10.82;;;;;;;;;;4950253;28;20057;-78
2021/07/03 02:38:35;;;;;;;13.07;10.63;;;;;;;;;;4950132;28;20055;-79
2021/07/03 02:41:01;;;;;;;12.50;10.55;;;;;;;;;;4949519;28;20055;-78
2021/07/03 02:43:28;;;;;;;14.30;10.27;;;;;;;;;;4949279;28;20051;-78
2021/07/03 02:45:54;;;;;;;11.45;9.43;;;;;;;;;;4949061;28;20079;-78
2021/07/03 02:48:20;;;;;;;11.02;9.73;;;;;;;;;;4951127;28;20051;-78
2021/07/03 02:50:47;;;;;;;11.23;10.02;;;;;;;;;;4932296;29;20455;-78
2021/07/03 02:53:14;;;;;;;10.88;9.63;;;;;;;;;;4933032;28;20491;-78
2021/07/03 02:55:40;;;;;;;11.70;9.65;;;;;;;;;;4949467;28;20464;-81
2021/07/03 02:58:07;;;;;;;10.35;9.00;;;;;;;;;;4932974;28;20479;-78
2021/07/03 03:00:33;;;;;;;11.68;10.13;;;;;;;;;;4949922;28;20051;-79
2021/07/03 03:02:59;;;;;;;11.68;10.52;;;;;;;;;;4932088;28;20051;-78
2021/07/03 03:05:26;;;;;;;10.20;9.10;;;;;;;;;;4940141;28;20059;-78
2021/07/03 03:07:52;;;;;;;9.43;8.43;;;;;;;;;;4963937;28;20059;-78
2021/07/03 03:10:19;;;;;;;9.65;8.65;;;;;;;;;;4965499;28;20099;-79
2021/07/03 03:12:46;;;;;;;10.55;8.55;;;;;;;;;;4951278;28;20204;-79
2021/07/03 03:15:14;;;;;;;10.40;8.60;;;;;;;;;;4968689;28;20062;-79
2021/07/03 03:17:40;;;;;;;11.15;8.85;;;;;;;;;;4952809;28;20058;-82
2021/07/03 03:20:08;;;;;;;11.57;9.02;;;;;;;;;;4953680;28;20402;-78
2021/07/03 03:22:34;;;;;;;11.38;9.35;;;;;;;;;;4952790;28;20051;-79
2021/07/03 03:25:00;;;;;;;12.70;10.30;;;;;;;;;;4951682;28;20047;-78
2021/07/03 03:27:27;;;;;;;10.10;8.95;;;;;;;;;;4968686;28;20047;-80
2021/07/03 03:29:53;;;;;;;11.10;9.00;;;;;;;;;;4953134;28;20057;-78
2021/07/03 03:32:19;;;;;;;11.93;9.38;;;;;;;;;;4969012;28;20047;-79
2021/07/03 03:34:45;;;;;;;14.80;11.00;;;;;;;;;;4967046;28;20047;-79
2021/07/03 03:37:11;;;;;;;12.07;10.75;;;;;;;;;;4952624;28;20506;-78
2021/07/03 03:39:37;;;;;;;9.63;8.18;;;;;;;;;;4952642;28;20060;-79
2021/07/03 03:42:04;;;;;;;11.93;10.13;;;;;;;;;;4953123;28;20078;-78
2021/07/03 03:44:31;;;;;;;11.60;10.35;;;;;;;;;;4952284;28;20178;-79
2021/07/03 03:46:57;;;;;;;13.95;10.60;;;;;;;;;;4944703;28;20050;-78
2021/07/03 03:49:23;;;;;;;14.40;11.50;;;;;;;;;;4968443;28;20055;-78
2021/07/03 03:51:50;;;;;;;13.77;12.02;;;;;;;;;;4953400;28;20062;-78
2021/07/03 03:54:16;;;;;;;18.17;13.30;;;;;;;;;;4968382;28;20509;-79
2021/07/03 03:56:42;;;;;;;17.45;13.45;;;;;;;;;;4952657;28;20114;-82
2021/07/03 03:59:12;;;;;;;18.05;13.40;;;;;;;;;;4953524;28;20065;-78
2021/07/03 04:01:39;;;;;;;14.52;12.57;;;;;;;;;;4953228;28;20404;-78
2021/07/03 04:04:06;;;;;;;14.73;12.98;;;;;;;;;;4951107;28;20062;-78
2021/07/03 04:06:32;;;;;;;15.15;12.30;;;;;;;;;;4952675;28;20085;-79
2021/07/03 04:08:59;;;;;;;19.05;14.98;;;;;;;;;;4952435;28;20146;-78
2021/07/03 04:11:25;;;;;;;25.70;15.68;;;;;;;;;;4952921;28;20062;-79
2021/07/03 04:13:51;;;;;;;17.17;14.02;;;;;;;;;;4951176;28;20127;-78
2021/07/03 04:16:17;;;;;;;18.23;14.00;;;;;;;;;;4953443;28;20067;-79
2021/07/03 04:18:44;;;;;;;19.70;14.80;;;;;;;;;;4935292;28;20062;-81
2021/07/03 04:21:10;;;;;;;16.45;13.48;;;;;;;;;;4952679;28;20047;-79
2021/07/03 04:23:36;;;;;;;17.25;13.57;;;;;;;;;;4952524;28;20048;-78
2021/07/03 04:26:03;;;;;;;13.23;10.45;;;;;;;;;;4934470;28;20255;-80
2021/07/03 04:28:33;;;;;;;12.77;10.88;;;;;;;;;;4952695;28;20052;-79
2021/07/03 04:31:00;;;;;;;13.73;10.98;;;;;;;;;;4951638;28;20061;-78
2021/07/03 04:33:26;;;;;;;14.35;11.93;;;;;;;;;;4952607;28;20059;-78
2021/07/03 04:35:52;;;;;;;13.52;11.80;;;;;;;;;;4949796;28;20487;-78
2021/07/03 04:38:19;;;;;;;13.93;10.20;;;;;;;;;;4952067;28;20051;-79
2021/07/03 04:40:45;;;;;;;14.80;11.25;;;;;;;;;;4951705;28;20062;-82
2021/07/03 04:43:12;;;;;;;13.38;10.07;;;;;;;;;;4938572;28;20055;-78
2021/07/03 04:45:38;;;;;;;14.30;10.70;;;;;;;;;;4935652;28;20060;-78
2021/07/03 04:48:04;;;;;;;12.65;10.68;;;;;;;;;;4932639;29;20060;-78
2021/07/03 04:50:30;;;;;;;9.73;8.32;;;;;;;;;;4931860;29;20054;-79
2021/07/03 04:52:56;;;;;;;10.73;8.57;;;;;;;;;;4931157;29;20058;-78
2021/07/03 04:55:23;;;;;;;12.10;10.35;;;;;;;;;;4945423;28;20059;-79
2021/07/03 04:57:51;;;;;;;10.73;9.63;;;;;;;;;;4951668;28;20055;-79
2021/07/03 05:00:18;;;;;;;10.35;7.90;;;;;;;;;;4950999;28;20051;-79
2021/07/03 05:02:45;;;;;;;11.43;9.20;;;;;;;;;;4950451;28;20558;-82
2021/07/03 05:05:11;;;;;;;13.15;11.60;;;;;;;;;;4939895;28;20071;-79
2021/07/03 05:07:38;;;;;;;14.18;11.75;;;;;;;;;;4931488;29;20103;-79
2021/07/03 05:10:05;;;;;;;14.75;11.90;;;;;;;;;;4932156;29;20717;-79
2021/07/03 05:12:31;;;;;;;11.15;9.60;;;;;;;;;;4934283;28;20076;-82
2021/07/03 05:14:57;;;;;;;14.68;11.60;;;;;;;;;;4950995;28;20430;-81
2021/07/03 05:17:23;;;;;;;12.27;10.98;;;;;;;;;;4951770;28;20114;-82
2021/07/03 05:19:49;;;;;;;13.52;10.20;;;;;;;;;;4934647;29;20554;-83
2021/07/03 05:22:16;;;;;;;11.43;10.18;;;;;;;;;;4951784;28;20085;-82
2021/07/03 05:24:42;;;;;;;18.60;12.73;;;;;;;;;;4934231;28;20039;-82
2021/07/03 05:27:08;;;;;;;16.02;12.27;;;;;;;;;;4917394;28;20063;-81
2021/07/03 05:29:34;;;;;;;13.85;11.60;;;;;;;;;;4951812;28;20130;-81
2021/07/03 05:32:00;;;;;;;15.13;12.10;;;;;;;;;;4950591;28;20063;-81
2021/07/03 05:34:26;;;;;;;14.70;11.73;;;;;;;;;;4948839;28;20055;-82
2021/07/03 05:36:54;;;;;;;12.35;10.32;;;;;;;;;;4949316;28;20551;-81
2021/07/03 05:39:20;;;;;;;13.43;11.77;;;;;;;;;;4940484;28;20450;-80
2021/07/03 05:41:47;;;;;;;13.52;10.35;;;;;;;;;;4931954;29;20106;-84
2021/07/03 05:44:13;;;;;;;14.35;10.90;;;;;;;;;;4941729;28;20059;-82
2021/07/03 05:46:39;;;;;;;11.63;10.40;;;;;;;;;;4933941;28;20066;-81
2021/07/03 05:49:05;;;;;;;10.55;9.45;;;;;;;;;;4950303;28;20047;-81
2021/07/03 05:51:32;;;;;;;11.77;10.55;;;;;;;;;;4951214;28;20055;-82
2021/07/03 05:53:58;;;;;;;12.90;9.73;;;;;;;;;;4932980;28;20047;-81
2021/07/03 05:56:26;;;;;;;11.48;9.38;;;;;;;;;;4950827;28;20131;-82
2021/07/03 05:58:53;;;;;;;11.57;8.73;;;;;;;;;;4949156;28;20075;-81
2021/07/03 06:01:19;;;;;;;9.48;8.60;;;;;;;;;;4950435;28;20058;-82
2021/07/03 06:03:45;;;;;;;10.95;8.95;;;;;;;;;;4941555;28;20083;-83
2021/07/03 06:06:12;;;;;;;11.43;8.60;;;;;;;;;;4942947;28;20138;-81
2021/07/03 06:08:38;;;;;;;10.30;8.88;;;;;;;;;;4950630;28;20556;-82
2021/07/03 06:11:04;;;;;;;9.80;8.80;;;;;;;;;;4932569;28;20114;-82
2021/07/03 06:13:30;;;;;;;10.35;9.35;;;;;;;;;;4934090;28;20491;-82
2021/07/03 06:15:57;;;;;;;12.40;9.57;;;;;;;;;;4932912;28;20566;-82
2021/07/03 06:18:25;;;;;;;11.52;9.38;;;;;;;;;;4933462;28;20051;-82
2021/07/03 06:20:52;;;;;;;11.00;9.75;;;;;;;;;;4949854;28;20055;-84
2021/07/03 06:23:18;;;;;;;11.18;10.07;;;;;;;;;;4950659;28;20055;-82
2021/07/03 06:25:45;;;;;;;12.32;9.57;;;;;;;;;;4950367;28;20087;-83
2021/07/03 06:28:11;;;;;;;13.00;9.50;;;;;;;;;;4949624;28;22494;-81
2021/07/03 06:30:37;;;;;;;10.45;9.35;;;;;;;;;;4949129;28;20062;-83
2021/07/03 06:33:03;;;;;;;10.63;9.45;;;;;;;;;;4947367;28;20054;-83
2021/07/03 06:35:29;;;;;;;12.65;9.68;;;;;;;;;;4939023;28;20051;-83
2021/07/03 06:37:56;;;;;;;12.05;9.50;;;;;;;;;;4928872;29;20059;-81
2021/07/03 06:40:22;;;;;;;11.88;9.60;;;;;;;;;;4931037;29;20051;-83
2021/07/03 06:42:48;;;;;;;11.52;9.82;;;;;;;;;;4936632;28;20051;-81
2021/07/03 06:45:14;;;;;;;11.48;10.05;;;;;;;;;;4932663;28;20050;-81
2021/07/03 06:47:41;;;;;;;13.82;9.88;;;;;;;;;;4932688;28;20109;-80
2021/07/03 06:50:07;;;;;;;10.45;9.25;;;;;;;;;;4949257;28;20575;-80
2021/07/03 06:52:34;;;;;;;12.25;10.32;;;;;;;;;;4949615;28;20055;-82
2021/07/03 06:55:00;;;;;;;12.15;9.55;;;;;;;;;;4948114;28;20047;-79
2021/07/03 06:57:27;;;;;;;11.82;9.88;;;;;;;;;;4948621;28;20055;-82
2021/07/03 06:59:53;;;;;;;14.02;10.32;;;;;;;;;;4949058;28;20055;-85
2021/07/03 07:02:20;;;;;;;13.23;10.73;;;;;;;;;;4935756;28;20143;-79
2021/07/03 07:04:46;;;;;;;12.05;9.73;;;;;;;;;;4914253;29;20535;-80
2021/07/03 07:07:13;;;;;;;13.20;9.98;;;;;;;;;;4942554;28;20062;-82
2021/07/03 07:09:39;;;;;;;11.25;9.15;;;;;;;;;;4931198;28;20511;-82
2021/07/03 07:12:05;;;;;;;10.80;8.85;;;;;;;;;;4955430;28;20106;-82
2021/07/03 07:14:32;;;;;;;10.70;9.00;;;;;;;;;;4963745;28;20130;-81
2021/07/03 07:16:58;;;;;;;10.52;8.43;;;;;;;;;;4948846;28;20094;-84
2021/07/03 07:19:24;;;;;;;13.05;9.13;;;;;;;;;;4946870;28;20547;-81
2021/07/03 07:21:50;;;;;;;10.77;9.30;;;;;;;;;;4954701;28;20060;-85
2021/07/03 07:24:16;;;;;;;11.00;9.90;;;;;;;;;;4948123;28;20051;-83
2021/07/03 07:26:43;;;;;;;9.75;8.52;;;;;;;;;;4964810;28;20056;-83
2021/07/03 07:29:09;;;;;;;9.23;8.02;;;;;;;;;;4949104;28;20079;-83
2021/07/03 07:31:35;;;;;;;10.20;8.73;;;;;;;;;;4949501;28;20058;-83
2021/07/03 07:34:01;;;;;;;10.43;9.02;;;;;;;;;;4948806;28;20059;-83
2021/07/03 07:36:29;;;;;;;10.27;8.25;;;;;;;;;;4949041;28;20526;-85
2021/07/03 07:38:57;;;;;;;9.43;8.32;;;;;;;;;;4946420;28;20149;-87
2021/07/03 07:41:24;;;;;;;11.80;8.25;;;;;;;;;;4949070;28;20098;-83
2021/07/03 07:43:50;;;;;;;11.10;8.82;;;;;;;;;;4975155;28;20558;-83
2021/07/03 07:46:16;;;;;;;9.75;7.90;;;;;;;;;;4982349;28;20421;-83
2021/07/03 07:48:42;;;;;;;10.18;8.32;;;;;;;;;;4975622;28;20078;-83
2021/07/03 07:51:09;;;;;;;9.82;8.07;;;;;;;;;;4965606;28;20054;-83
2021/07/03 07:53:35;;;;;;;9.93;7.00;;;;;;;;;;4963667;28;20408;-83
2021/07/03 07:56:01;;;;;;;10.13;6.75;;;;;;;;;;4958833;28;20142;-83
2021/07/03 07:58:27;;;;;;;12.95;7.40;;;;;;;;;;4970752;28;20109;-82
2021/07/03 08:00:54;;;;;;;12.15;7.65;;;;;;;;;;4971807;28;20392;-85
2021/07/03 08:03:21;;;;;;;9.50;7.57;;;;;;;;;;4953066;28;20047;-82
2021/07/03 08:05:47;;;;;;;12.13;7.55;;;;;;;;;;4952804;28;20074;-82
2021/07/03 08:08:13;;;;;;;12.30;7.63;;;;;;;;;;4951973;28;20090;-84
2021/07/03 08:10:40;;;;;;;10.70;7.60;;;;;;;;;;4938891;28;20055;-82
2021/07/03 08:13:07;;;;;;;12.20;7.82;;;;;;;;;;4942587;28;20368;-83
2021/07/03 08:15:33;;;;;;;10.20;7.88;;;;;;;;;;4946999;28;20074;-83
2021/07/03 08:18:00;;;;;;;11.32;7.57;;;;;;;;;;4931692;28;20048;-84
2021/07/03 08:20:26;;;;;;;11.30;7.75;;;;;;;;;;4949782;28;20051;-83
2021/07/03 08:22:53;;;;;;;9.88;7.63;;;;;;;;;;4950929;28;20047;-82
2021/07/03 08:25:21;;;;;;;9.95;7.57;;;;;;;;;;4951521;28;20055;-84
2021/07/03 08:27:48;;;;;;;12.82;8.23;;;;;;;;;;4951993;28;20053;-83
2021/07/03 08:30:15;;;;;;;12.30;8.05;;;;;;;;;;4949482;28;20181;-84
2021/07/03 08:32:41;;;;;;;11.13;9.05;;;;;;;;;;4963319;28;20055;-83
2021/07/03 08:35:08;;;;;;;12.00;9.40;;;;;;;;;;4969692;28;20447;-83
2021/07/03 08:37:34;;;;;;;12.32;8.75;;;;;;;;;;4969278;28;20062;-83
2021/07/03 08:40:02;;;;;;;12.95;8.20;;;;;;;;;;4962863;28;20130;-84
2021/07/03 08:42:29;;;;;;;12.98;9.88;;;;;;;;;;4951597;28;20066;-83
2021/07/03 08:44:55;;;;;;;12.52;10.50;;;;;;;;;;4951750;28;20055;-86
2021/07/03 08:47:21;;;;;;;16.13;10.80;;;;;;;;;;4944384;28;20082;-83
2021/07/03 08:49:58;;;;;;;14.48;10.65;;;;;;;;;;4935048;28;20050;-83
2021/07/03 08:52:25;;;;;;;14.27;11.07;;;;;;;;;;4969204;28;20082;-82
2021/07/03 08:55:06;;;;;;;15.32;11.82;;;;;;;;;;4966735;28;20058;-82
2021/07/03 08:57:52;;;;;;;15.73;11.27;;;;;;;;;;4936780;28;20054;-85
2021/07/03 09:00:36;;;;;;;13.48;11.23;;;;;;;;;;4950460;28;20126;-83
2021/07/03 09:03:14;;;;;;;14.60;12.88;;;;;;;;;;4936798;28;20459;-84
2021/07/03 09:05:49;;;;;;;13.55;11.48;;;;;;;;;;4951776;28;20230;-83
2021/07/03 09:08:16;;;;;;;17.80;12.75;;;;;;;;;;4940304;28;20115;-86
2021/07/03 09:10:42;;;;;;;15.55;12.13;;;;;;;;;;4941924;28;20179;-84
2021/07/03 09:13:09;;;;;;;13.57;12.00;;;;;;;;;;4951741;28;20126;-86
2021/07/03 09:15:42;;;;;;;16.08;13.88;;;;;;;;;;4951403;28;20503;-84
2021/07/03 09:18:11;;;;;;;15.33;12.60;;;;;;;;;;4949349;28;20051;-84
2021/07/03 09:20:44;;;;;;;14.30;12.50;;;;;;;;;;4949111;28;20085;-84
2021/07/03 09:23:16;;;;;;;17.17;13.60;;;;;;;;;;4931864;28;20091;-84
2021/07/03 09:25:46;;;;;;;18.48;14.70;;;;;;;;;;4962303;28;20130;-84
2021/07/03 09:28:14;;;;;;;17.35;14.80;;;;;;;;;;4950672;28;20515;-85
2021/07/03 09:30:41;;;;;;;19.70;16.30;;;;;;;;;;4949750;28;20062;-83
2021/07/03 09:33:07;;;;;;;19.75;17.27;;;;;;;;;;4964801;28;20057;-83
2021/07/03 09:35:34;;;;;;;17.42;15.50;;;;;;;;;;4948849;28;20051;-84
2021/07/03 09:38:05;;;;;;;17.75;14.50;;;;;;;;;;4948931;28;20043;-83
2021/07/03 09:40:32;;;;;;;17.77;15.02;;;;;;;;;;4932025;28;20440;-83
2021/07/03 09:43:06;;;;;;;17.05;14.55;;;;;;;;;;4922667;28;20478;-85
2021/07/03 09:45:32;;;;;;;18.42;13.90;;;;;;;;;;4917455;28;20135;-82
2021/07/03 09:48:09;;;;;;;15.43;13.75;;;;;;;;;;4940107;28;20117;-86
2021/07/03 09:50:37;;;;;;;18.50;13.73;;;;;;;;;;4939293;28;20059;-82
2021/07/03 09:53:05;;;;;;;15.75;14.00;;;;;;;;;;4948891;28;20051;-82
2021/07/03 09:55:32;;;;;;;16.20;13.88;;;;;;;;;;4949348;28;20122;-83
2021/07/03 09:57:58;;;;;;;16.55;13.80;;;;;;;;;;4949265;28;20131;-85
2021/07/03 10:00:24;;;;;;;16.25;14.02;;;;;;;;;;4931976;28;20126;-83
2021/07/03 10:02:51;;;;;;;17.23;15.40;;;;;;;;;;4950820;28;20130;-83
2021/07/03 10:05:18;;;;;;;16.65;14.32;;;;;;;;;;4932495;29;20316;-83
2021/07/03 10:07:46;;;;;;;15.55;13.00;;;;;;;;;;4963553;28;20403;-82
2021/07/03 10:10:15;;;;;;;15.85;11.98;;;;;;;;;;4951498;28;20050;-84
2021/07/03 10:12:43;;;;;;;13.95;11.23;;;;;;;;;;4970890;28;20043;-83
2021/07/03 10:15:10;;;;;;;15.07;11.75;;;;;;;;;;4964474;28;20082;-82
2021/07/03 10:17:37;;;;;;;13.93;12.18;;;;;;;;;;4984063;28;20046;-82
2021/07/03 10:20:13;;;;;;;14.20;11.80;;;;;;;;;;4973137;28;20054;-83
2021/07/03 10:22:39;;;;;;;13.50;11.18;;;;;;;;;;4950328;28;20394;-82
2021/07/03 10:25:13;;;;;;;14.88;13.15;;;;;;;;;;4949129;28;20054;-83
2021/07/03 10:27:49;;;;;;;14.07;11.93;;;;;;;;;;4941761;28;20063;-81
2021/07/03 10:30:21;;;;;;;13.15;11.38;;;;;;;;;;4947699;28;20125;-85
2021/07/03 10:32:53;;;;;;;14.50;10.85;;;;;;;;;;4944538;28;20061;-82
2021/07/03 10:35:20;;;;;;;12.50;10.80;;;;;;;;;;4963501;28;20051;-83
2021/07/03 10:37:47;;;;;;;12.18;10.88;;;;;;;;;;4965190;28;20074;-82
2021/07/03 10:40:17;;;;;;;13.50;10.57;;;;;;;;;;4962433;28;20066;-84
2021/07/03 10:42:44;;;;;;;11.88;9.48;;;;;;;;;;4947965;28;20047;-83
2021/07/03 10:45:11;;;;;;;12.10;9.20;;;;;;;;;;4948683;28;20059;-83
2021/07/03 10:47:38;;;;;;;10.57;9.48;;;;;;;;;;4945383;28;20048;-83
2021/07/03 10:50:18;;;;;;;11.82;9.68;;;;;;;;;;4927683;28;20061;-83
2021/07/03 10:52:44;;;;;;;10.90;9.70;;;;;;;;;;4964555;28;20055;-82
2021/07/03 10:55:11;;;;;;;11.18;8.35;;;;;;;;;;4962719;28;20066;-82
2021/07/03 10:57:42;;;;;;;12.50;9.77;;;;;;;;;;4950166;28;20059;-82
2021/07/03 11:00:08;;;;;;;12.20;8.95;;;;;;;;;;4956803;28;20508;-83
2021/07/03 11:02:35;;;;;;;12.23;8.70;;;;;;;;;;4963695;28;20063;-83
2021/07/03 11:05:02;;;;;;;10.18;8.45;;;;;;;;;;4942544;28;20077;-84
2021/07/03 11:07:32;;;;;;;10.40;9.38;;;;;;;;;;4930302;29;20050;-83
2021/07/03 11:10:18;;;;;;;11.23;9.20;;;;;;;;;;4935247;28;20051;-83
2021/07/03 11:12:51;;;;;;;10.57;8.30;;;;;;;;;;4934210;28;20526;-82
2021/07/03 11:15:24;;;;;;;8.07;7.28;;;;;;;;;;4938638;28;20106;-83
2021/07/03 11:17:50;;;;;;;9.15;7.63;;;;;;;;;;4949677;28;20085;-83
2021/07/03 11:20:23;;;;;;;8.48;7.43;;;;;;;;;;4942277;28;20109;-83
2021/07/03 11:22:49;;;;;;;9.70;7.00;;;;;;;;;;4954439;28;20059;-83
2021/07/03 11:25:24;;;;;;;9.50;7.40;;;;;;;;;;4945740;28;20055;-82
2021/07/03 11:27:50;;;;;;;9.98;7.55;;;;;;;;;;4949784;28;20108;-84
2021/07/03 11:30:17;;;;;;;8.52;7.07;;;;;;;;;;4947303;28;20403;-82
2021/07/03 11:32:50;;;;;;;9.30;7.45;;;;;;;;;;4960911;28;20058;-83
2021/07/03 11:35:16;;;;;;;10.52;7.50;;;;;;;;;;4964618;28;20070;-82
2021/07/03 11:37:42;;;;;;;9.10;7.40;;;;;;;;;;4969454;28;20054;-82
2021/07/03 11:40:10;;;;;;;8.45;7.57;;;;;;;;;;4952457;28;20104;-82
2021/07/03 11:42:38;;;;;;;9.60;8.00;;;;;;;;;;4953265;28;20139;-80
2021/07/03 11:45:05;;;;;;;8.88;7.97;;;;;;;;;;4947488;28;20043;-83
2021/07/03 11:47:32;;;;;;;9.60;8.60;;;;;;;;;;4954671;28;20480;-83
2021/07/03 11:49:59;;;;;;;8.77;6.60;;;;;;;;;;4954692;28;20202;-83
2021/07/03 11:52:25;;;;;;;8.63;6.60;;;;;;;;;;4954196;28;20043;-83
2021/07/03 11:55:01;;;;;;;6.60;5.88;;;;;;;;;;4957056;28;20157;-84
2021/07/03 11:57:36;;;;;;;6.97;6.28;;;;;;;;;;4935556;28;20063;-84
2021/07/03 12:00:03;;;;;;;6.78;6.05;;;;;;;;;;4952742;28;20051;-82
2021/07/03 12:02:29;;;;;;;7.20;6.50;;;;;;;;;;4952503;28;20059;-82
2021/07/03 12:04:56;;;;;;;6.85;5.72;;;;;;;;;;4953164;28;20510;-82
2021/07/03 12:07:22;;;;;;;7.38;6.20;;;;;;;;;;4951785;28;20051;-81
2021/07/03 12:09:48;;;;;;;7.00;5.63;;;;;;;;;;4952000;28;20743;-82
2021/07/03 12:12:18;;;;;;;6.53;5.75;;;;;;;;;;4946527;28;20054;-84
2021/07/03 12:14:45;;;;;;;9.02;6.20;;;;;;;;;;4951793;28;20044;-84
2021/07/03 12:17:18;;;;;;;6.88;6.18;;;;;;;;;;4958562;28;20074;-84
2021/07/03 12:19:44;;;;;;;7.38;6.57;;;;;;;;;;4956280;28;20098;-82
2021/07/03 12:22:13;;;;;;;6.38;5.78;;;;;;;;;;4950294;28;20051;-84
2021/07/03 12:24:39;;;;;;;6.65;5.93;;;;;;;;;;4955060;28;20101;-84
2021/07/03 12:27:06;;;;;;;7.97;6.20;;;;;;;;;;4970647;28;20055;-85
2021/07/03 12:29:36;;;;;;;9.27;6.57;;;;;;;;;;4957392;28;20059;-84
2021/07/03 12:32:12;;;;;;;6.22;5.00;;;;;;;;;;4956962;28;20058;-82
2021/07/03 12:34:40;;;;;;;6.07;5.07;;;;;;;;;;4970608;28;20054;-82
2021/07/03 12:37:09;;;;;;;5.78;4.85;;;;;;;;;;4971725;28;20057;-83
2021/07/03 12:39:38;;;;;;;5.93;4.80;;;;;;;;;;4957073;28;20063;-83
2021/07/03 12:42:07;;;;;;;6.72;5.32;;;;;;;;;;4935588;28;20059;-81
2021/07/03 12:44:37;;;;;;;5.93;4.80;;;;;;;;;;4951335;28;20055;-82
2021/07/03 12:47:05;;;;;;;5.38;4.88;;;;;;;;;;4951418;28;20173;-81
2021/07/03 12:49:32;;;;;;;5.00;4.50;;;;;;;;;;4944705;28;20055;-81
2021/07/03 12:51:59;;;;;;;5.97;4.57;;;;;;;;;;4946226;28;20327;-84
2021/07/03 12:54:26;;;;;;;5.38;4.88;;;;;;;;;;4941110;28;20054;-84
2021/07/03 12:56:58;;;;;;;6.13;4.82;;;;;;;;;;4952454;28;20510;-84
2021/07/03 12:59:37;;;;;;;5.95;5.10;;;;;;;;;;4949138;28;20476;-83
2021/07/03 13:02:08;;;;;;;6.30;4.95;;;;;;;;;;4935179;28;20448;-82
2021/07/03 13:04:34;;;;;;;5.53;5.00;;;;;;;;;;4951658;28;20077;-82
2021/07/03 13:07:01;;;;;;;5.63;4.95;;;;;;;;;;4951549;28;20055;-83
2021/07/03 13:09:28;;;;;;;5.22;4.70;;;;;;;;;;4949925;28;20045;-83
2021/07/03 13:11:55;;;;;;;5.40;4.97;;;;;;;;;;4950919;28;20063;-82
2021/07/03 13:14:22;;;;;;;7.40;4.90;;;;;;;;;;4949803;28;20052;-82
2021/07/03 13:16:48;;;;;;;5.50;4.93;;;;;;;;;;4934211;29;20083;-83
2021/07/03 13:19:14;;;;;;;5.50;4.97;;;;;;;;;;4950845;28;20048;-83
2021/07/03 13:21:41;;;;;;;7.10;5.00;;;;;;;;;;4952230;28;20463;-83
2021/07/03 13:24:07;;;;;;;5.63;5.03;;;;;;;;;;4907813;29;20055;-83
2021/07/03 13:26:33;;;;;;;5.13;4.28;;;;;;;;;;4937581;28;20178;-83
2021/07/03 13:28:59;;;;;;;6.70;4.75;;;;;;;;;;4943511;28;20230;-88
2021/07/03 13:31:26;;;;;;;5.63;5.00;;;;;;;;;;4936748;28;20067;-89
2021/07/03 13:33:52;;;;;;;5.40;4.70;;;;;;;;;;4954287;28;20081;-85
2021/07/03 13:36:18;;;;;;;5.32;4.82;;;;;;;;;;4952215;28;20401;-84
2021/07/03 13:38:44;;;;;;;5.22;4.70;;;;;;;;;;4953185;28;20081;-81
2021/07/03 13:41:11;;;;;;;13.88;4.72;;;;;;;;;;4954015;28;20077;-89
2021/07/03 13:43:37;;;;;;;5.15;4.50;;;;;;;;;;4951219;28;20131;-83
2021/07/03 13:46:04;;;;;;;5.88;4.03;;;;;;;;;;4948561;28;20050;-86
2021/07/03 13:48:30;;;;;;;5.70;4.72;;;;;;;;;;4950603;28;20055;-85
2021/07/03 13:50:56;;;;;;;6.28;4.55;;;;;;;;;;4948688;28;20061;-85
2021/07/03 13:53:23;;;;;;;5.00;4.32;;;;;;;;;;4947608;28;20134;-84
2021/07/03 13:55:50;;;;;;;5.75;4.40;;;;;;;;;;4946967;28;20069;-84
2021/07/03 13:58:16;;;;;;;4.72;4.18;;;;;;;;;;4953263;28;20050;-85
2021/07/03 14:00:43;;;;;;;5.63;4.25;;;;;;;;;;4947556;28;20059;-84
2021/07/03 14:03:10;;;;;;;4.97;4.10;;;;;;;;;;4947426;28;20507;-84
2021/07/03 14:05:36;;;;;;;5.85;4.07;;;;;;;;;;4949179;28;20063;-84
2021/07/03 14:08:03;;;;;;;6.25;4.22;;;;;;;;;;4950062;28;20059;-84
2021/07/03 14:10:29;;;;;;;4.22;3.75;;;;;;;;;;4950032;28;20134;-85
2021/07/03 14:12:55;;;;;;;4.97;3.85;;;;;;;;;;4945511;28;20051;-85
2021/07/03 14:15:22;;;;;;;5.22;3.90;;;;;;;;;;4950153;28;20062;-85
2021/07/03 14:17:48;;;;;;;4.47;4.03;;;;;;;;;;4948979;28;20138;-84
2021/07/03 14:20:15;;;;;;;4.78;4.10;;;;;;;;;;4948107;28;20432;-87
2021/07/03 14:22:41;;;;;;;4.22;3.78;;;;;;;;;;4946610;28;20051;-85
2021/07/03 14:25:08;;;;;;;4.30;3.90;;;;;;;;;;4953919;28;20129;-85
2021/07/03 14:27:34;;;;;;;5.38;4.15;;;;;;;;;;4949130;28;20691;-84
2021/07/03 14:30:01;;;;;;;14.00;6.78;;;;;;;;;;4952824;28;20059;-84